Time;durP1;ratioP1;P1;durP2;ratioP2;P2;SDS_P1;SDS_P2;PMS_P1;PMS_P2;Temp;Humidity;BMP_temperature;BMP_pressure;BME280_temperature;BME280_humidity;BME280_pressure;Samples;Min_cycle;Max_cycle;Signal;HPM_P1;HPM_P2
2023/04/14 00:00:28;;;;;;;4.53;1.98;;;5.00;99.90;;;;;;4753736;30;20146;-81
2023/04/14 00:02:53;;;;;;;4.57;1.85;;;4.90;99.90;;;;;;4767527;30;20265;-81
2023/04/14 00:05:19;;;;;;;5.85;1.58;;;4.80;99.90;;;;;;4753293;30;20051;-81
2023/04/14 00:07:45;;;;;;;7.88;1.65;;;4.70;99.90;;;;;;4753281;30;20075;-82
2023/04/14 00:10:10;;;;;;;5.22;1.67;;;4.70;99.90;;;;;;4752189;30;20070;-81
2023/04/14 00:12:36;;;;;;;8.52;1.48;;;4.60;99.90;;;;;;4766855;30;20047;-82
2023/04/14 00:15:02;;;;;;;6.78;1.95;;;4.60;99.90;;;;;;4753708;30;20096;-81
2023/04/14 00:17:27;;;;;;;7.97;1.80;;;4.70;99.90;;;;;;4755522;30;20118;-81
2023/04/14 00:19:53;;;;;;;5.28;1.35;;;4.70;99.90;;;;;;4768680;30;20048;-81
2023/04/14 00:22:20;;;;;;;4.45;1.20;;;4.70;99.90;;;;;;4753162;30;20067;-81
2023/04/14 00:24:46;;;;;;;3.13;0.70;;;4.70;99.90;;;;;;4765551;30;20045;-81
2023/04/14 00:27:12;;;;;;;6.38;1.30;;;4.70;99.90;;;;;;4753309;30;20241;-81
2023/04/14 00:29:38;;;;;;;5.80;1.92;;;4.60;99.90;;;;;;4753043;30;20039;-81
2023/04/14 00:32:06;;;;;;;5.80;1.60;;;4.60;99.90;;;;;;4767588;30;20237;-81
2023/04/14 00:34:33;;;;;;;3.60;1.20;;;4.50;99.90;;;;;;4767569;30;20055;-82
2023/04/14 00:36:58;;;;;;;4.07;1.10;;;4.40;99.90;;;;;;4752659;30;20051;-81
2023/04/14 00:39:24;;;;;;;6.35;1.77;;;4.40;99.90;;;;;;4768179;30;20031;-81
2023/04/14 00:41:50;;;;;;;4.32;1.08;;;4.40;99.90;;;;;;4766831;30;20526;-81
2023/04/14 00:44:15;;;;;;;7.35;1.55;;;4.40;99.90;;;;;;4753306;30;20055;-81
2023/04/14 00:46:42;;;;;;;2.97;1.20;;;4.40;99.90;;;;;;4751425;30;20411;-82
2023/04/14 00:49:18;;;;;;;3.35;0.88;;;4.40;99.90;;;;;;4753726;30;20064;-81
2023/04/14 00:51:45;;;;;;;3.70;0.70;;;4.40;99.90;;;;;;4768239;30;20104;-81
2023/04/14 00:54:12;;;;;;;5.57;1.20;;;4.30;99.90;;;;;;4754577;30;20126;-81
2023/04/14 00:56:38;;;;;;;5.07;1.10;;;4.30;99.90;;;;;;4753042;30;20062;-81
2023/04/14 00:59:05;;;;;;;3.00;1.13;;;4.30;99.90;;;;;;4769251;30;20555;-81
2023/04/14 01:01:35;;;;;;;5.25;1.40;;;4.30;99.90;;;;;;4767722;30;20107;-81
2023/04/14 01:04:01;;;;;;;4.82;0.80;;;4.50;99.90;;;;;;4752888;30;20051;-81
2023/04/14 01:06:27;;;;;;;5.90;1.13;;;4.30;99.90;;;;;;4754749;30;20072;-81
2023/04/14 01:08:54;;;;;;;3.88;0.90;;;4.30;99.90;;;;;;4770873;30;20096;-82
2023/04/14 01:11:29;;;;;;;4.68;1.55;;;4.40;99.90;;;;;;4754083;30;20066;-81
2023/04/14 01:14:13;;;;;;;5.07;1.13;;;4.30;99.90;;;;;;4749548;30;20051;-82
2023/04/14 01:16:41;;;;;;;2.88;0.60;;;4.30;99.90;;;;;;4750494;30;20063;-82
2023/04/14 01:19:44;;;;;;;2.00;0.70;;;4.30;99.90;;;;;;4765714;30;20066;-81
2023/04/14 01:22:13;;;;;;;5.15;0.70;;;4.20;99.90;;;;;;4766594;30;20785;-81
2023/04/14 01:24:39;;;;;;;4.20;1.10;;;4.10;99.90;;;;;;4765344;30;20060;-81
2023/04/14 01:27:31;;;;;;;5.88;0.82;;;4.10;99.90;;;;;;4766248;30;20086;-81
2023/04/14 01:30:25;;;;;;;4.82;1.30;;;4.10;99.90;;;;;;4746853;30;20408;-81
2023/04/14 01:32:55;;;;;;;5.28;1.52;;;4.10;99.90;;;;;;4766475;30;20134;-82
2023/04/14 01:35:35;;;;;;;3.92;0.90;;;4.20;99.90;;;;;;4765088;30;20052;-81
2023/04/14 01:38:09;;;;;;;3.30;1.00;;;4.10;99.90;;;;;;4749984;30;20039;-81
2023/04/14 01:40:37;;;;;;;4.07;0.85;;;4.20;99.90;;;;;;4750847;30;20043;-81
2023/04/14 01:43:08;;;;;;;8.30;1.25;;;4.20;99.90;;;;;;4749327;30;20048;-81
2023/04/14 01:45:41;;;;;;;3.08;1.13;;;4.20;99.90;;;;;;4766964;30;20116;-81
2023/04/14 01:48:08;;;;;;;7.15;2.25;;;4.20;99.90;;;;;;4766597;30;20070;-81
2023/04/14 01:50:35;;;;;;;4.28;1.73;;;4.20;99.90;;;;;;4749489;30;20508;-81
2023/04/14 01:53:05;;;;;;;3.47;1.17;;;4.10;99.90;;;;;;4763336;30;20062;-81
2023/04/14 01:55:33;;;;;;;7.10;1.33;;;4.10;99.90;;;;;;4766731;30;20052;-81
2023/04/14 01:58:01;;;;;;;11.88;1.67;;;4.10;99.90;;;;;;4763892;30;20836;-81
2023/04/14 02:00:27;;;;;;;11.57;2.58;;;4.00;99.90;;;;;;4763638;30;20044;-81
2023/04/14 02:02:54;;;;;;;6.88;1.77;;;4.10;99.90;;;;;;4763021;30;20063;-81
2023/04/14 02:05:21;;;;;;;6.82;1.38;;;4.20;99.90;;;;;;4764555;30;20607;-81
2023/04/14 02:07:48;;;;;;;5.72;1.73;;;4.30;99.90;;;;;;4765251;30;20058;-81
2023/04/14 02:10:20;;;;;;;7.15;1.77;;;4.30;99.90;;;;;;4749472;30;20519;-81
2023/04/14 02:12:47;;;;;;;4.65;1.95;;;4.30;99.90;;;;;;4752039;30;20503;-81
2023/04/14 02:15:16;;;;;;;2.67;1.08;;;4.20;99.90;;;;;;4764512;30;20044;-82
2023/04/14 02:17:43;;;;;;;5.63;1.33;;;4.20;99.90;;;;;;4746963;30;20043;-81
2023/04/14 02:20:09;;;;;;;3.38;1.33;;;4.00;99.90;;;;;;4751854;30;20058;-81
2023/04/14 02:22:35;;;;;;;4.50;1.30;;;4.00;99.90;;;;;;4764438;30;20055;-81
2023/04/14 02:25:01;;;;;;;4.18;1.10;;;3.90;99.90;;;;;;4764646;30;20086;-81
2023/04/14 02:27:37;;;;;;;3.92;1.27;;;3.80;99.90;;;;;;4762842;30;20505;-81
2023/04/14 02:30:15;;;;;;;7.13;2.20;;;3.70;99.90;;;;;;4748979;30;20040;-81
2023/04/14 02:32:48;;;;;;;8.73;2.13;;;3.70;99.90;;;;;;4748499;30;20081;-81
2023/04/14 02:35:20;;;;;;;3.83;0.90;;;3.70;99.90;;;;;;4748742;30;20453;-81
2023/04/14 02:37:53;;;;;;;4.80;0.88;;;3.70;99.90;;;;;;4750100;30;20086;-81
2023/04/14 02:40:26;;;;;;;2.45;1.10;;;3.60;99.90;;;;;;4748570;30;20056;-81
2023/04/14 02:43:06;;;;;;;8.18;1.45;;;3.60;99.90;;;;;;4765210;30;20043;-81
2023/04/14 02:45:33;;;;;;;3.80;1.45;;;3.80;99.90;;;;;;4765299;30;20043;-81
2023/04/14 02:48:05;;;;;;;4.45;1.33;;;3.60;99.90;;;;;;4767074;30;20093;-82
2023/04/14 02:50:32;;;;;;;3.35;1.30;;;3.60;99.90;;;;;;4768733;30;20507;-81
2023/04/14 02:52:59;;;;;;;7.32;1.00;;;3.60;99.90;;;;;;4751936;30;20055;-81
2023/04/14 02:55:26;;;;;;;3.00;1.20;;;3.50;99.90;;;;;;4753494;30;20100;-81
2023/04/14 02:57:52;;;;;;;3.67;1.00;;;3.50;99.90;;;;;;4767857;30;20105;-82
2023/04/14 03:00:19;;;;;;;3.92;1.00;;;3.50;99.90;;;;;;4751868;30;20561;-81
2023/04/14 03:02:47;;;;;;;5.25;1.60;;;3.50;99.90;;;;;;4767952;30;20048;-81
2023/04/14 03:05:13;;;;;;;3.63;1.30;;;3.40;99.90;;;;;;4769074;30;20050;-81
2023/04/14 03:07:42;;;;;;;4.95;1.35;;;3.40;99.90;;;;;;4750932;30;20044;-82
2023/04/14 03:10:10;;;;;;;2.45;1.35;;;3.40;99.90;;;;;;4750946;30;20055;-81
2023/04/14 03:12:36;;;;;;;4.40;1.65;;;3.30;99.90;;;;;;4767508;30;20044;-81
2023/04/14 03:15:03;;;;;;;3.47;0.98;;;3.30;99.90;;;;;;4767338;30;20058;-81
2023/04/14 03:17:31;;;;;;;2.80;1.48;;;3.30;99.90;;;;;;4752542;30;20126;-81
2023/04/14 03:19:59;;;;;;;4.65;1.90;;;3.30;99.90;;;;;;4769025;30;20058;-81
2023/04/14 03:22:28;;;;;;;5.35;1.92;;;3.20;99.90;;;;;;4751157;30;20500;-80
2023/04/14 03:24:57;;;;;;;3.85;1.67;;;3.20;99.90;;;;;;4748086;30;20048;-81
2023/04/14 03:27:28;;;;;;;2.92;1.23;;;3.20;99.90;;;;;;4751007;30;20063;-81
2023/04/14 03:29:59;;;;;;;4.13;1.60;;;3.20;99.90;;;;;;4751974;30;20035;-81
2023/04/14 03:32:29;;;;;;;3.45;1.10;;;3.20;99.90;;;;;;4766276;30;20082;-81
2023/04/14 03:35:00;;;;;;;3.67;1.02;;;3.20;99.90;;;;;;4765299;30;20134;-81
2023/04/14 03:37:27;;;;;;;4.82;1.63;;;3.20;99.90;;;;;;4751591;30;20048;-81
2023/04/14 03:39:57;;;;;;;2.45;1.42;;;3.20;99.90;;;;;;4765355;30;20046;-81
2023/04/14 03:42:24;;;;;;;8.05;1.48;;;3.10;99.90;;;;;;4765677;30;20059;-81
2023/04/14 03:44:53;;;;;;;7.53;1.52;;;3.20;99.90;;;;;;4768384;30;20052;-81
2023/04/14 03:47:22;;;;;;;2.65;1.00;;;3.10;99.90;;;;;;4751472;30;20055;-81
2023/04/14 03:49:49;;;;;;;4.70;1.60;;;3.00;99.90;;;;;;4751274;30;20052;-81
2023/04/14 03:52:16;;;;;;;5.95;1.60;;;3.00;99.90;;;;;;4747659;30;20100;-81
2023/04/14 03:54:44;;;;;;;2.78;1.00;;;3.00;99.90;;;;;;4766374;30;20056;-81
2023/04/14 03:57:12;;;;;;;5.35;1.63;;;3.00;99.90;;;;;;4765561;30;20056;-81
2023/04/14 03:59:40;;;;;;;2.78;1.45;;;2.80;99.90;;;;;;4763381;30;20729;-81
2023/04/14 04:02:06;;;;;;;3.67;1.30;;;2.80;99.90;;;;;;4749852;30;20052;-81
2023/04/14 04:04:33;;;;;;;4.95;1.85;;;2.80;99.90;;;;;;4766684;30;20157;-81
2023/04/14 04:06:59;;;;;;;9.35;2.53;;;2.90;99.90;;;;;;4749279;30;20048;-81
2023/04/14 04:09:26;;;;;;;7.03;2.25;;;3.00;99.90;;;;;;4749578;30;20826;-81
2023/04/14 04:11:52;;;;;;;6.32;2.28;;;3.00;99.90;;;;;;4752511;30;20047;-81
2023/04/14 04:14:21;;;;;;;5.65;2.03;;;3.10;99.90;;;;;;4750070;30;20055;-81
2023/04/14 04:16:48;;;;;;;7.85;2.78;;;3.20;99.90;;;;;;4750395;30;20047;-81
2023/04/14 04:19:17;;;;;;;4.90;1.58;;;3.20;99.90;;;;;;4767680;30;20056;-81
2023/04/14 04:21:45;;;;;;;6.28;2.25;;;3.30;99.90;;;;;;4766004;30;20051;-81
2023/04/14 04:24:12;;;;;;;4.28;1.42;;;3.30;99.90;;;;;;4765691;30;20051;-81
2023/04/14 04:26:38;;;;;;;3.88;1.23;;;3.30;99.90;;;;;;4765814;30;20051;-81
2023/04/14 04:29:05;;;;;;;2.08;1.05;;;3.40;99.90;;;;;;4750376;30;20447;-81
2023/04/14 04:31:32;;;;;;;5.18;1.20;;;3.40;99.90;;;;;;4764146;30;20043;-81
2023/04/14 04:33:58;;;;;;;2.85;1.23;;;3.40;99.90;;;;;;4748409;30;20060;-81
2023/04/14 04:36:30;;;;;;;3.25;1.30;;;3.40;99.90;;;;;;4750449;30;20092;-81
2023/04/14 04:38:56;;;;;;;3.03;1.98;;;3.40;99.90;;;;;;4763736;30;20063;-81
2023/04/14 04:41:22;;;;;;;5.70;1.70;;;3.50;99.90;;;;;;4750171;30;20052;-81
2023/04/14 04:43:48;;;;;;;4.75;2.00;;;3.60;99.90;;;;;;4764942;30;20051;-81
2023/04/14 04:46:33;;;;;;;6.97;2.15;;;3.60;99.90;;;;;;4750295;30;20048;-81
2023/04/14 04:48:58;;;;;;;4.25;2.20;;;3.70;99.90;;;;;;4766095;30;20048;-81
2023/04/14 04:51:24;;;;;;;6.22;2.05;;;3.70;99.90;;;;;;4750357;30;20049;-81
2023/04/14 04:53:51;;;;;;;5.72;2.05;;;3.80;99.90;;;;;;4765138;30;20111;-80
2023/04/14 04:56:16;;;;;;;6.32;1.52;;;3.80;99.90;;;;;;4765363;30;20043;-81
2023/04/14 04:58:42;;;;;;;5.95;1.85;;;3.80;99.90;;;;;;4755869;30;20062;-80
2023/04/14 05:01:09;;;;;;;4.50;1.80;;;3.80;99.90;;;;;;4764413;30;20112;-81
2023/04/14 05:03:35;;;;;;;5.32;1.70;;;3.90;99.90;;;;;;4750671;30;20119;-81
2023/04/14 05:06:01;;;;;;;7.55;1.92;;;3.90;99.90;;;;;;4748772;30;20052;-80
2023/04/14 05:08:26;;;;;;;2.97;1.92;;;3.90;99.90;;;;;;4749794;30;20051;-80
2023/04/14 05:10:52;;;;;;;7.70;1.65;;;4.00;99.90;;;;;;4761833;30;20074;-82
2023/04/14 05:13:17;;;;;;;2.63;1.52;;;4.00;99.90;;;;;;4749219;30;20400;-81
2023/04/14 05:15:43;;;;;;;4.15;1.45;;;4.10;99.90;;;;;;4749786;30;20084;-83
2023/04/14 05:18:08;;;;;;;3.03;1.20;;;4.00;99.90;;;;;;4764176;30;20043;-84
2023/04/14 05:20:34;;;;;;;4.85;1.45;;;4.10;99.90;;;;;;4768084;30;20055;-85
2023/04/14 05:23:00;;;;;;;6.22;1.70;;;4.20;99.90;;;;;;4749676;30;20048;-83
2023/04/14 05:25:25;;;;;;;4.35;2.28;;;4.20;99.90;;;;;;4764815;30;20216;-84
2023/04/14 05:27:51;;;;;;;6.60;2.40;;;4.30;99.90;;;;;;4749042;30;20047;-83
2023/04/14 05:30:16;;;;;;;5.32;2.78;;;4.50;99.90;;;;;;4751283;30;20131;-84
2023/04/14 05:32:43;;;;;;;5.25;2.08;;;4.70;99.90;;;;;;4746374;30;20096;-85
2023/04/14 05:35:12;;;;;;;3.85;2.35;;;5.60;99.90;;;;;;4739845;30;20382;-84
2023/04/14 05:37:37;;;;;;;4.63;1.83;;;6.80;99.90;;;;;;4749281;30;20058;-84
2023/04/14 05:40:03;;;;;;;8.13;1.85;;;7.80;99.90;;;;;;4749272;30;20048;-84
2023/04/14 05:42:29;;;;;;;6.70;1.85;;;8.70;99.90;;;;;;4765641;30;20123;-83
2023/04/14 05:44:55;;;;;;;6.47;1.90;;;9.90;99.90;;;;;;4751821;30;20131;-85
2023/04/14 05:47:20;;;;;;;5.93;1.67;;;10.60;99.90;;;;;;4766770;30;20055;-84
2023/04/14 05:49:46;;;;;;;8.90;1.63;;;11.10;99.90;;;;;;4770500;30;20040;-83
2023/04/14 05:52:12;;;;;;;4.63;1.02;;;11.90;99.90;;;;;;4753644;30;20043;-83
2023/04/14 05:54:37;;;;;;;8.35;1.90;;;12.70;99.90;;;;;;4767673;30;20052;-85
2023/04/14 05:57:03;;;;;;;7.38;1.73;;;13.60;99.90;;;;;;4751679;30;20051;-85
2023/04/14 05:59:28;;;;;;;9.65;1.50;;;13.90;99.90;;;;;;4749148;30;20154;-83
2023/04/14 06:01:54;;;;;;;5.00;1.20;;;14.60;99.90;;;;;;4763641;30;20453;-84
2023/04/14 06:04:20;;;;;;;4.35;1.52;;;15.20;99.90;;;;;;4746479;30;20044;-82
2023/04/14 06:06:45;;;;;;;7.10;1.70;;;16.10;99.90;;;;;;4749766;30;20130;-83
2023/04/14 06:09:11;;;;;;;3.75;1.30;;;17.20;99.90;;;;;;4765158;30;20120;-83
2023/04/14 06:11:37;;;;;;;5.60;1.38;;;17.70;99.90;;;;;;4750546;30;20094;-83
2023/04/14 06:14:04;;;;;;;4.28;1.63;;;18.40;99.90;;;;;;4748329;30;20048;-83
2023/04/14 06:16:30;;;;;;;4.93;1.63;;;19.30;99.90;;;;;;4763951;30;20062;-83
2023/04/14 06:18:55;;;;;;;4.72;1.77;;;19.40;99.90;;;;;;4749935;30;20054;-84
2023/04/14 06:21:21;;;;;;;7.95;1.50;;;20.30;99.90;;;;;;4765923;30;20040;-83
2023/04/14 06:23:46;;;;;;;4.15;1.50;;;20.70;99.10;;;;;;4768731;30;20047;-84
2023/04/14 06:26:12;;;;;;;5.45;2.03;;;21.50;98.30;;;;;;4766938;30;20047;-84
2023/04/14 06:28:38;;;;;;;6.55;2.97;;;22.40;98.00;;;;;;4753236;30;20047;-83
2023/04/14 06:31:03;;;;;;;5.05;2.63;;;22.60;95.60;;;;;;4753560;30;20048;-83
2023/04/14 06:33:29;;;;;;;7.35;2.80;;;23.20;94.80;;;;;;4769448;30;20051;-83
2023/04/14 06:35:54;;;;;;;5.80;2.70;;;23.60;93.70;;;;;;4753801;30;20050;-84
2023/04/14 06:38:20;;;;;;;6.10;2.10;;;24.20;93.30;;;;;;4750328;30;20097;-84
2023/04/14 06:40:46;;;;;;;4.38;1.63;;;24.60;92.10;;;;;;4767699;30;20673;-84
2023/04/14 06:43:13;;;;;;;5.40;1.60;;;24.50;91.70;;;;;;4753047;30;20052;-83
2023/04/14 06:45:38;;;;;;;8.57;2.03;;;24.50;91.20;;;;;;4750284;30;20067;-83
2023/04/14 06:48:04;;;;;;;5.15;1.90;;;25.00;90.60;;;;;;4767435;30;20040;-83
2023/04/14 06:50:30;;;;;;;5.10;2.00;;;25.00;89.00;;;;;;4752177;30;20051;-83
2023/04/14 06:52:55;;;;;;;6.97;2.33;;;25.30;87.60;;;;;;4752121;30;20051;-83
2023/04/14 06:55:21;;;;;;;5.35;1.85;;;25.50;86.40;;;;;;4750886;30;20055;-83
2023/04/14 06:57:46;;;;;;;7.45;2.20;;;25.70;85.30;;;;;;4738356;30;20056;-84
2023/04/14 07:00:12;;;;;;;7.38;1.33;;;25.20;83.40;;;;;;4752346;30;20182;-85
2023/04/14 07:02:38;;;;;;;7.75;1.60;;;24.20;81.10;;;;;;4753385;30;20337;-82
2023/04/14 07:05:23;;;;;;;10.15;1.75;;;23.30;79.70;;;;;;4751390;30;20050;-82
2023/04/14 07:07:52;;;;;;;7.45;1.70;;;23.10;80.60;;;;;;4747291;30;20051;-85
2023/04/14 07:11:29;;;;;;;8.10;2.58;;;21.90;82.60;;;;;;4751828;30;20047;-85
2023/04/14 07:14:24;;;;;;;10.40;1.45;;;21.10;82.80;;;;;;4698734;30;20520;-84
2023/04/14 07:16:52;;;;;;;8.93;2.05;;;20.10;84.30;;;;;;4718480;30;20048;-84
2023/04/14 07:19:45;;;;;;;7.07;1.77;;;20.00;85.30;;;;;;4745687;30;20063;-85
2023/04/14 07:22:11;;;;;;;6.55;1.40;;;19.40;84.60;;;;;;4752140;30;20047;-84
2023/04/14 07:24:37;;;;;;;7.72;1.30;;;19.00;84.70;;;;;;4767029;30;20146;-84
2023/04/14 07:27:06;;;;;;;8.75;1.55;;;18.50;85.60;;;;;;4765661;30;20067;-84
2023/04/14 07:29:34;;;;;;;3.50;1.02;;;18.30;86.80;;;;;;4763835;30;20047;-84
2023/04/14 07:32:00;;;;;;;6.47;1.60;;;17.80;88.30;;;;;;4749849;30;20800;-84
2023/04/14 07:34:27;;;;;;;11.75;1.63;;;17.60;89.40;;;;;;4752145;30;20059;-84
2023/04/14 07:36:55;;;;;;;6.53;1.67;;;17.30;90.10;;;;;;4750486;30;20035;-84
2023/04/14 07:39:21;;;;;;;5.95;1.65;;;17.20;90.30;;;;;;4753964;30;21559;-84
2023/04/14 07:41:47;;;;;;;7.15;1.70;;;16.70;91.20;;;;;;4750260;30;20066;-84
2023/04/14 07:44:13;;;;;;;2.83;1.55;;;16.70;91.30;;;;;;4767256;30;20051;-84
2023/04/14 07:46:40;;;;;;;6.43;1.58;;;16.50;91.30;;;;;;4751063;30;20083;-85
2023/04/14 07:49:05;;;;;;;6.40;1.60;;;16.40;91.70;;;;;;4750835;30;20043;-83
2023/04/14 07:51:31;;;;;;;5.47;1.13;;;16.50;91.50;;;;;;4762944;30;20694;-83
2023/04/14 07:53:57;;;;;;;7.35;1.48;;;16.50;91.40;;;;;;4747900;30;20093;-83
2023/04/14 07:56:23;;;;;;;7.03;1.85;;;16.30;91.00;;;;;;4748565;30;20538;-84
2023/04/14 07:58:48;;;;;;;5.15;1.23;;;16.30;91.50;;;;;;4763519;30;20052;-83
2023/04/14 08:01:14;;;;;;;5.07;1.30;;;16.30;91.70;;;;;;4765659;30;20078;-83
2023/04/14 08:03:40;;;;;;;8.07;1.60;;;16.40;92.30;;;;;;4750432;30;20044;-84
2023/04/14 08:06:06;;;;;;;4.10;1.17;;;16.40;92.10;;;;;;4750942;30;20043;-84
2023/04/14 08:08:33;;;;;;;6.40;1.63;;;16.10;92.20;;;;;;4736896;30;20403;-83
2023/04/14 08:10:58;;;;;;;7.32;2.30;;;16.10;92.40;;;;;;4749413;30;20046;-84
2023/04/14 08:13:24;;;;;;;6.50;1.45;;;16.20;92.20;;;;;;4768198;30;20043;-84
2023/04/14 08:15:50;;;;;;;5.55;1.10;;;15.70;92.00;;;;;;4767601;30;20135;-83
2023/04/14 08:18:16;;;;;;;4.10;1.13;;;15.80;92.40;;;;;;4750496;30;20089;-83
2023/04/14 08:24:36;;;;;;;6.55;1.15;;;15.30;93.50;;;;;;4708893;30;20060;-83
2023/04/14 08:27:02;;;;;;;8.85;1.92;;;15.40;93.60;;;;;;4738369;30;20100;-83
2023/04/14 08:29:27;;;;;;;6.53;1.40;;;15.30;93.50;;;;;;4764557;30;20147;-84
2023/04/14 08:31:53;;;;;;;5.55;1.35;;;15.30;93.40;;;;;;4765153;30;20064;-83
2023/04/14 08:34:19;;;;;;;8.98;1.83;;;15.30;94.00;;;;;;4750179;30;20059;-84
2023/04/14 08:36:46;;;;;;;8.55;1.48;;;15.10;93.30;;;;;;4765998;30;20052;-83
2023/04/14 08:39:12;;;;;;;4.80;1.42;;;15.10;93.50;;;;;;4750082;30;20054;-83
2023/04/14 08:41:38;;;;;;;7.30;2.00;;;14.70;93.80;;;;;;4766436;30;20484;-83
2023/04/14 08:44:04;;;;;;;5.88;1.73;;;14.50;94.40;;;;;;4764326;30;20048;-83
2023/04/14 08:46:30;;;;;;;5.70;1.67;;;14.50;94.60;;;;;;4765361;30;20090;-83
2023/04/14 08:49:06;;;;;;;7.93;1.30;;;14.60;94.70;;;;;;4767175;30;20051;-83
2023/04/14 08:51:41;;;;;;;6.00;1.60;;;14.60;93.70;;;;;;4766250;30;20054;-82
2023/04/14 08:54:11;;;;;;;7.28;1.33;;;14.70;94.50;;;;;;4750522;30;20472;-83
2023/04/14 08:56:41;;;;;;;5.95;1.92;;;15.10;94.30;;;;;;4750070;30;20064;-83
2023/04/14 08:59:08;;;;;;;5.28;1.75;;;15.10;94.40;;;;;;4753011;30;20077;-83
2023/04/14 09:01:35;;;;;;;9.77;2.70;;;14.80;94.20;;;;;;4765311;30;20051;-83
2023/04/14 09:04:05;;;;;;;7.38;1.95;;;14.70;94.10;;;;;;4749805;30;20096;-82
2023/04/14 09:06:32;;;;;;;6.60;2.05;;;14.60;94.80;;;;;;4764931;30;20372;-83
2023/04/14 09:09:07;;;;;;;7.30;2.10;;;14.80;94.90;;;;;;4750417;30;20529;-83
2023/04/14 09:11:33;;;;;;;7.45;1.88;;;14.60;94.90;;;;;;4764888;30;20059;-83
2023/04/14 09:14:00;;;;;;;7.07;2.13;;;14.90;94.80;;;;;;4749001;30;20487;-83
2023/04/14 09:16:26;;;;;;;6.30;1.50;;;14.30;94.30;;;;;;4750905;30;20055;-83
2023/04/14 09:18:56;;;;;;;9.27;1.67;;;14.70;95.10;;;;;;4750189;30;20048;-84
2023/04/14 09:22:12;;;;;;;6.45;1.60;;;14.30;94.60;;;;;;4751580;30;20535;-83
2023/04/14 09:37:18;;;;;;;11.80;1.50;;;15.30;93.00;;;;;;4670692;30;20104;-84
2023/04/14 09:55:33;;;;;;;8.40;2.28;;;14.40;93.20;;;;;;4659375;30;20399;-84
2023/04/14 10:05:50;;;;;;;9.18;1.73;;;14.40;94.20;;;;;;4672420;30;20460;-84
2023/04/14 10:08:15;;;;;;;7.75;1.50;;;15.10;92.90;;;;;;4720140;30;20128;-84
2023/04/14 10:10:41;;;;;;;6.47;1.40;;;15.20;94.00;;;;;;4715939;30;20576;-83
2023/04/14 10:13:07;;;;;;;7.63;1.73;;;15.60;93.70;;;;;;4736694;30;20052;-84
2023/04/14 10:15:33;;;;;;;6.63;1.67;;;15.70;92.20;;;;;;4769499;30;20042;-84
2023/04/14 10:17:59;;;;;;;4.53;1.00;;;15.90;93.00;;;;;;4770124;30;20056;-83
2023/04/14 10:20:25;;;;;;;10.90;1.98;;;15.80;93.10;;;;;;4770167;30;20036;-83
2023/04/14 10:22:53;;;;;;;7.20;1.65;;;16.10;92.50;;;;;;4755015;30;20074;-83
2023/04/14 10:25:19;;;;;;;6.32;1.42;;;15.70;91.80;;;;;;4755429;30;20062;-83
2023/04/14 10:27:45;;;;;;;9.27;1.42;;;15.70;92.30;;;;;;4752524;30;20245;-84
2023/04/14 10:30:11;;;;;;;4.22;1.13;;;15.90;92.90;;;;;;4768638;30;20039;-83
2023/04/14 10:32:39;;;;;;;5.43;1.50;;;16.30;92.50;;;;;;4756482;30;20106;-85
2023/04/14 10:35:05;;;;;;;7.03;1.25;;;16.50;92.20;;;;;;4741580;30;20058;-85
2023/04/14 10:37:32;;;;;;;6.70;2.13;;;16.80;92.00;;;;;;4760989;30;20051;-83
2023/04/14 10:39:59;;;;;;;9.73;1.40;;;16.70;91.80;;;;;;4756780;30;20135;-84
2023/04/14 10:42:25;;;;;;;5.70;0.90;;;16.70;90.60;;;;;;4754430;30;20039;-83
2023/04/14 10:45:09;;;;;;;6.05;1.10;;;16.90;91.00;;;;;;4766294;30;20110;-83
2023/04/14 10:47:39;;;;;;;7.30;1.50;;;16.90;90.20;;;;;;4754516;30;20046;-84
2023/04/14 10:50:12;;;;;;;7.57;1.70;;;16.40;91.50;;;;;;4753498;30;20083;-84
2023/04/14 10:52:47;;;;;;;6.82;1.50;;;15.90;90.90;;;;;;4766861;30;20149;-84
2023/04/14 10:55:13;;;;;;;;;;;15.70;90.40;;;;;;4767613;30;20081;-83
2023/04/14 10:57:42;;;;;;;;;;;15.20;91.00;;;;;;4770867;30;19926;-84
2023/04/14 11:00:22;;;;;;;4.65;0.90;;;15.00;90.60;;;;;;4755176;30;20407;-83
2023/04/14 11:03:09;;;;;;;8.77;2.17;;;14.90;91.80;;;;;;4769968;30;20058;-84
2023/04/14 11:05:35;;;;;;;5.75;1.63;;;14.80;91.20;;;;;;4755637;30;20043;-84
2023/04/14 11:08:12;;;;;;;7.20;1.67;;;15.10;91.90;;;;;;4755222;30;20048;-83
2023/04/14 11:10:37;;;;;;;6.38;1.52;;;15.00;92.70;;;;;;4753965;30;20054;-84
2023/04/14 11:13:05;;;;;;;3.88;1.38;;;15.30;92.50;;;;;;4756234;30;20135;-84
2023/04/14 11:15:48;;;;;;;6.35;1.15;;;15.50;91.70;;;;;;4756195;30;20089;-84
2023/04/14 11:18:34;;;;;;;4.82;1.63;;;15.50;91.30;;;;;;4753801;30;20126;-85
2023/04/14 11:21:13;;;;;;;5.38;1.10;;;15.50;90.50;;;;;;4750528;30;20077;-84
2023/04/14 11:23:39;;;;;;;5.28;1.23;;;15.70;90.90;;;;;;4751504;30;20108;-84
2023/04/14 11:26:06;;;;;;;4.88;1.45;;;16.00;88.80;;;;;;4747094;30;20119;-84
2023/04/14 11:28:33;;;;;;;8.68;2.08;;;16.30;90.90;;;;;;4751347;30;20097;-84
2023/04/14 11:31:02;;;;;;;10.57;1.63;;;16.20;91.00;;;;;;4752077;30;20064;-84
2023/04/14 11:33:36;;;;;;;4.65;0.90;;;16.50;91.70;;;;;;4753228;30;20051;-84
2023/04/14 11:36:03;;;;;;;8.30;1.90;;;16.60;91.00;;;;;;4754016;30;20407;-84
2023/04/14 11:38:29;;;;;;;5.00;1.08;;;16.60;91.00;;;;;;4756024;30;20553;-84
2023/04/14 11:40:55;;;;;;;6.70;1.33;;;16.80;92.00;;;;;;4754034;30;20048;-84
2023/04/14 11:43:22;;;;;;;6.55;1.67;;;17.00;92.00;;;;;;4767340;30;20070;-84
2023/04/14 11:45:48;;;;;;;6.55;1.20;;;16.60;89.40;;;;;;4754469;30;20047;-85
2023/04/14 11:48:19;;;;;;;5.47;1.13;;;16.50;89.60;;;;;;4766244;30;20056;-84
2023/04/14 11:50:47;;;;;;;7.85;2.05;;;16.60;90.20;;;;;;4751610;30;20103;-84
2023/04/14 11:53:16;;;;;;;5.30;1.30;;;16.50;90.50;;;;;;4778057;30;20057;-85
2023/04/14 11:55:50;;;;;;;6.90;1.50;;;16.50;90.10;;;;;;4760019;30;20411;-84
2023/04/14 11:58:25;;;;;;;4.17;0.80;;;16.50;88.00;;;;;;4754717;30;20052;-84
2023/04/14 12:00:53;;;;;;;5.55;1.23;;;16.70;88.60;;;;;;4754136;30;20380;-84
2023/04/14 12:03:19;;;;;;;5.30;0.80;;;16.80;89.70;;;;;;4768730;30;20051;-84
2023/04/14 12:05:45;;;;;;;5.00;1.52;;;17.00;86.60;;;;;;4769384;30;20051;-84
2023/04/14 12:08:11;;;;;;;9.85;1.58;;;17.00;85.90;;;;;;4769306;30;20488;-84
2023/04/14 12:10:41;;;;;;;8.27;1.45;;;17.30;89.30;;;;;;4771639;30;20407;-84
2023/04/14 12:13:10;;;;;;;6.80;1.30;;;17.40;88.00;;;;;;4753650;30;20445;-84
2023/04/14 12:15:41;;;;;;;3.83;1.10;;;17.30;88.60;;;;;;4768622;30;20054;-84
2023/04/14 12:18:12;;;;;;;4.57;1.30;;;17.20;86.80;;;;;;4753451;30;20112;-84
2023/04/14 12:20:52;;;;;;;6.22;1.60;;;17.10;86.40;;;;;;4752893;30;20131;-83
2023/04/14 12:23:20;;;;;;;6.78;1.63;;;17.00;85.50;;;;;;4751181;30;20754;-84
2023/04/14 12:25:48;;;;;;;5.30;1.42;;;17.10;87.20;;;;;;4753141;30;20106;-84
2023/04/14 12:28:23;;;;;;;4.82;1.35;;;17.10;88.80;;;;;;4753195;30;20115;-84
2023/04/14 12:30:56;;;;;;;7.88;1.35;;;16.90;90.20;;;;;;4758748;30;20055;-84
2023/04/14 12:33:27;;;;;;;6.28;1.15;;;17.30;87.40;;;;;;4761795;30;20079;-86
2023/04/14 12:35:58;;;;;;;5.72;1.52;;;16.90;86.60;;;;;;4756566;30;20428;-86
2023/04/14 12:38:27;;;;;;;8.35;1.83;;;16.50;89.30;;;;;;4762483;30;20130;-86
2023/04/14 12:40:53;;;;;;;5.30;1.55;;;16.30;90.20;;;;;;4749662;30;20051;-85
2023/04/14 12:43:27;;;;;;;3.47;1.10;;;16.30;90.40;;;;;;4759599;30;20139;-84
2023/04/14 12:45:54;;;;;;;7.97;2.15;;;16.30;90.10;;;;;;4770206;30;20043;-84
2023/04/14 12:48:21;;;;;;;5.05;2.08;;;16.30;90.70;;;;;;4766954;30;20050;-83
2023/04/14 12:51:06;;;;;;;9.68;2.40;;;16.40;90.30;;;;;;4767327;30;20138;-82
2023/04/14 12:53:52;;;;;;;6.10;1.10;;;16.10;88.60;;;;;;4752975;30;20051;-85
2023/04/14 12:56:21;;;;;;;5.07;1.58;;;15.70;90.40;;;;;;4765245;29;20068;-84
2023/04/14 12:58:47;;;;;;;7.28;1.38;;;15.70;90.30;;;;;;4748648;30;20076;-83
2023/04/14 13:01:14;;;;;;;4.60;0.95;;;15.90;90.00;;;;;;4752838;30;20048;-83
2023/04/14 13:04:06;;;;;;;6.88;1.70;;;16.30;89.30;;;;;;4769492;29;20044;-84
2023/04/14 13:07:06;;;;;;;5.97;1.08;;;15.80;86.80;;;;;;4723658;30;20044;-84
2023/04/14 13:17:12;;;;;;;6.97;1.52;;;15.00;90.00;;;;;;4767274;30;20081;-83
2023/04/14 13:19:37;;;;;;;5.57;1.63;;;15.10;88.80;;;;;;4757199;30;20440;-83
2023/04/14 13:22:03;;;;;;;5.72;1.40;;;15.10;89.50;;;;;;4755432;30;20627;-83
2023/04/14 13:24:29;;;;;;;4.15;1.40;;;15.20;90.80;;;;;;4752516;30;20052;-83
2023/04/14 13:26:55;;;;;;;5.88;2.05;;;15.10;89.30;;;;;;4751888;30;20651;-83
2023/04/14 13:29:20;;;;;;;9.38;1.83;;;15.40;90.00;;;;;;4750143;30;20048;-83
2023/04/14 13:31:46;;;;;;;4.40;1.23;;;15.00;90.20;;;;;;4749963;30;20082;-82
2023/04/14 13:53:28;;;;;;;5.82;0.95;;;16.30;89.90;;;;;;4768053;30;20100;-81
2023/04/14 14:00:51;;;;;;;7.13;1.73;;;16.40;87.70;;;;;;4755270;30;20142;-81
2023/04/14 14:04:15;;;;;;;5.63;1.40;;;16.20;86.10;;;;;;4736963;30;20101;-81
2023/04/14 14:29:18;;;;;;;4.63;1.88;;;16.80;87.60;;;;;;4710294;30;20406;-83
2023/04/14 14:32:07;;;;;;;6.03;1.63;;;16.20;87.00;;;;;;4732275;30;20525;-82
2023/04/14 14:35:30;;;;;;;5.63;1.20;;;16.10;88.20;;;;;;4757135;30;20060;-83